createdAt,value
2018-08-17T00:00:49.854Z,24.37
2018-08-17T00:03:18.056Z,25.10
2018-08-17T00:05:46.271Z,24.77
2018-08-17T00:08:14.638Z,25.77
2018-08-17T00:10:42.816Z,23.37
2018-08-17T00:13:10.995Z,23.87
2018-08-17T00:15:39.182Z,23.50
2018-08-17T00:18:07.455Z,23.47
2018-08-17T00:20:35.647Z,22.80
2018-08-17T00:23:03.822Z,23.90
2018-08-17T00:25:32.023Z,23.27
2018-08-17T00:28:00.227Z,24.67
2018-08-17T00:30:28.397Z,24.93
2018-08-17T00:32:56.571Z,22.90
2018-08-17T00:35:24.758Z,25.00
2018-08-17T00:37:52.998Z,22.50
2018-08-17T00:40:21.174Z,22.33
2018-08-17T00:42:49.355Z,23.90
2018-08-17T00:45:17.550Z,23.27
2018-08-17T00:47:45.734Z,22.57
2018-08-17T00:50:13.926Z,23.43
2018-08-17T00:52:42.118Z,23.40
2018-08-17T00:55:10.319Z,23.50
2018-08-17T00:57:38.522Z,24.60
2018-08-17T01:00:06.845Z,23.97
2018-08-17T01:02:35.017Z,24.00
2018-08-17T01:05:03.233Z,22.00
2018-08-17T01:07:31.407Z,25.50
2018-08-17T01:09:59.606Z,23.60
2018-08-17T01:12:27.787Z,24.30
2018-08-17T01:14:55.971Z,23.30
2018-08-17T01:17:24.155Z,24.27
2018-08-17T01:19:52.375Z,24.43
2018-08-17T01:22:20.552Z,23.50
2018-08-17T01:24:48.755Z,23.60
2018-08-17T01:27:16.943Z,23.57
2018-08-17T01:29:45.121Z,23.30
2018-08-17T01:32:13.350Z,25.97
2018-08-17T01:34:41.511Z,23.70
2018-08-17T01:37:09.675Z,23.43
2018-08-17T01:39:37.858Z,23.33
2018-08-17T01:42:06.074Z,23.90
2018-08-17T01:44:34.242Z,24.20
2018-08-17T01:47:02.420Z,23.90
2018-08-17T01:49:30.606Z,23.10
2018-08-17T01:51:58.779Z,23.00
2018-08-17T01:54:26.952Z,22.83
2018-08-17T01:56:55.560Z,23.70
2018-08-17T01:59:23.730Z,24.43
2018-08-17T02:01:51.906Z,23.67
2018-08-17T02:04:20.090Z,23.80
2018-08-17T02:06:48.266Z,23.60
2018-08-17T02:09:16.458Z,22.57
2018-08-17T02:11:44.647Z,22.00
2018-08-17T02:14:12.814Z,23.63
2018-08-17T02:16:41.311Z,22.43
2018-08-17T02:19:09.742Z,23.07
2018-08-17T02:21:37.940Z,22.83
2018-08-17T02:24:06.126Z,22.23
2018-08-17T02:26:34.300Z,24.00
2018-08-17T02:29:02.484Z,22.30
2018-08-17T02:31:30.674Z,25.07
2018-08-17T02:33:58.894Z,24.77
2018-08-17T02:36:27.098Z,24.40
2018-08-17T02:38:55.273Z,24.87
2018-08-17T02:41:23.462Z,24.30
2018-08-17T02:43:51.631Z,25.23
2018-08-17T02:46:19.818Z,24.90
2018-08-17T02:48:47.982Z,23.50
2018-08-17T02:51:16.185Z,25.97
2018-08-17T02:53:44.387Z,28.60
2018-08-17T02:56:12.555Z,29.60
2018-08-17T02:58:40.725Z,29.73
2018-08-17T03:01:08.887Z,29.30
2018-08-17T03:03:37.062Z,30.57
2018-08-17T03:06:05.330Z,31.90
2018-08-17T03:08:33.506Z,30.50
2018-08-17T03:11:01.668Z,30.17
2018-08-17T03:13:29.854Z,31.87
2018-08-17T03:15:58.014Z,32.47
2018-08-17T03:18:26.228Z,30.47
2018-08-17T03:20:54.428Z,31.47
2018-08-17T03:23:22.627Z,32.07
2018-08-17T03:25:50.843Z,34.23
2018-08-17T03:28:19.022Z,34.47
2018-08-17T03:30:47.200Z,34.47
2018-08-17T03:33:15.360Z,34.80
2018-08-17T03:35:43.578Z,34.67
2018-08-17T03:38:11.821Z,34.50
2018-08-17T03:40:39.998Z,33.90
2018-08-17T03:43:08.329Z,32.30
2018-08-17T03:45:36.502Z,32.67
2018-08-17T03:48:04.718Z,34.83
2018-08-17T03:50:32.925Z,34.07
2018-08-17T03:53:01.110Z,34.40
2018-08-17T03:55:29.299Z,36.23
2018-08-17T03:57:57.490Z,33.00
2018-08-17T04:00:25.670Z,34.27
2018-08-17T04:02:53.862Z,34.27
2018-08-17T04:05:22.082Z,33.70
2018-08-17T04:07:50.718Z,32.17
2018-08-17T04:10:18.911Z,31.20
2018-08-17T04:12:47.086Z,32.07
2018-08-17T04:15:15.270Z,29.07
2018-08-17T04:17:43.438Z,30.23
2018-08-17T04:20:11.650Z,29.17
2018-08-17T04:22:39.810Z,27.53
2018-08-17T04:25:08.036Z,27.07
2018-08-17T04:27:36.214Z,25.17
2018-08-17T04:30:04.864Z,25.73
2018-08-17T04:32:32.990Z,26.00
2018-08-17T04:35:01.175Z,26.57
2018-08-17T04:37:29.346Z,24.07
2018-08-17T04:39:57.523Z,25.17
2018-08-17T04:42:25.712Z,25.40
2018-08-17T04:44:53.897Z,23.63
2018-08-17T04:47:22.097Z,23.20
2018-08-17T04:49:50.275Z,21.57
2018-08-17T04:52:18.450Z,21.20
2018-08-17T04:54:46.669Z,21.20
2018-08-17T04:57:14.834Z,19.63
2018-08-17T04:59:43.028Z,19.40
2018-08-17T05:02:11.238Z,21.00
2018-08-17T05:04:39.426Z,19.03
2018-08-17T05:07:08.225Z,17.57
2018-08-17T05:09:36.411Z,18.77
2018-08-17T05:12:04.591Z,17.90
2018-08-17T05:14:32.776Z,17.87
2018-08-17T05:17:00.953Z,17.93
2018-08-17T05:19:29.132Z,19.13
2018-08-17T05:21:57.329Z,18.97
2018-08-17T05:24:25.507Z,15.90
2018-08-17T05:26:53.694Z,16.60
2018-08-17T05:29:21.876Z,17.20
2018-08-17T05:31:50.091Z,15.80
2018-08-17T05:34:18.267Z,17.60
2018-08-17T05:36:46.454Z,15.70
2018-08-17T05:39:14.691Z,15.43
2018-08-17T05:41:42.870Z,15.43
2018-08-17T05:44:11.066Z,13.53
2018-08-17T05:46:39.231Z,15.23
2018-08-17T05:49:07.419Z,15.10
2018-08-17T05:51:35.607Z,13.97
2018-08-17T05:54:03.994Z,12.53
2018-08-17T05:56:32.195Z,13.03
2018-08-17T05:59:00.356Z,11.70
2018-08-17T06:01:28.550Z,11.83
2018-08-17T06:03:56.716Z,10.67
2018-08-17T06:06:24.904Z,9.50
2018-08-17T06:08:53.115Z,9.50
2018-08-17T06:11:21.484Z,8.33
2018-08-17T06:13:49.475Z,9.67
2018-08-17T06:16:17.667Z,9.73
2018-08-17T06:18:45.847Z,10.90
2018-08-17T06:21:14.036Z,10.87
2018-08-17T06:23:42.411Z,12.37
2018-08-17T06:26:10.596Z,11.87
2018-08-17T06:28:38.790Z,14.77
2018-08-17T06:31:07.030Z,18.30
2018-08-17T06:33:35.222Z,20.00
2018-08-17T06:36:03.482Z,23.67
2018-08-17T06:38:31.619Z,21.10
2018-08-17T06:40:59.807Z,21.90
2018-08-17T06:43:28.086Z,20.03
2018-08-17T06:45:56.270Z,21.17
2018-08-17T06:48:24.459Z,22.33
2018-08-17T06:50:52.759Z,21.00
2018-08-17T06:53:20.839Z,19.07
2018-08-17T06:55:49.017Z,20.13
2018-08-17T06:58:17.187Z,18.93
2018-08-17T07:00:45.390Z,19.90
2018-08-17T07:03:13.567Z,19.27
2018-08-17T07:05:41.742Z,19.83
2018-08-17T07:08:09.915Z,21.70
2018-08-17T07:10:38.094Z,20.20
2018-08-17T07:13:06.302Z,19.80
2018-08-17T07:15:34.491Z,20.07
2018-08-17T07:18:02.669Z,19.50
2018-08-17T07:20:30.841Z,19.30
2018-08-17T07:22:59.042Z,19.37
2018-08-17T07:25:27.223Z,19.40
2018-08-17T07:27:55.424Z,19.37
2018-08-17T07:30:23.582Z,18.80
2018-08-17T07:32:51.776Z,20.27
2018-08-17T07:35:19.962Z,18.50
2018-08-17T07:37:48.148Z,17.90
2018-08-17T07:40:16.331Z,17.70
2018-08-17T07:42:44.522Z,17.50
2018-08-17T07:45:12.697Z,17.47
2018-08-17T07:47:40.907Z,18.53
2018-08-17T07:50:11.379Z,15.80
2018-08-17T07:52:39.563Z,16.90
2018-08-17T07:55:07.763Z,16.57
2018-08-17T07:57:35.954Z,15.53
2018-08-17T08:00:04.730Z,16.10
2018-08-17T08:02:32.939Z,16.77
2018-08-17T08:05:01.105Z,16.57
2018-08-17T08:07:29.316Z,17.37
2018-08-17T08:09:57.510Z,16.30
2018-08-17T08:12:25.671Z,16.00
2018-08-17T08:14:53.841Z,16.03
2018-08-17T08:17:22.054Z,15.77
2018-08-17T08:20:01.530Z,16.80
2018-08-17T08:22:29.718Z,16.17
2018-08-17T08:24:57.906Z,14.20
2018-08-17T08:27:26.066Z,16.30
2018-08-17T08:29:54.244Z,15.50
2018-08-17T08:32:22.473Z,16.43
2018-08-17T08:34:50.614Z,15.40
2018-08-17T08:37:20.322Z,14.83
2018-08-17T08:39:48.503Z,14.40
2018-08-17T08:42:16.655Z,14.53
2018-08-17T08:44:44.834Z,14.43
2018-08-17T08:47:13.049Z,12.93
2018-08-17T08:49:41.214Z,13.30
2018-08-17T08:52:09.387Z,12.73
2018-08-17T08:54:37.563Z,12.53
2018-08-17T08:57:06.206Z,12.67
2018-08-17T08:59:34.379Z,11.80
2018-08-17T09:02:02.554Z,11.57
2018-08-17T09:04:30.745Z,11.73
2018-08-17T09:06:59.003Z,11.77
2018-08-17T09:09:27.161Z,8.87
2018-08-17T09:11:55.328Z,10.00
2018-08-17T09:14:23.494Z,9.13
2018-08-17T09:16:51.650Z,8.10
2018-08-17T09:19:19.820Z,8.10
2018-08-17T09:21:48.000Z,9.80
2018-08-17T09:24:16.181Z,9.87
2018-08-17T09:26:44.387Z,13.17
2018-08-17T09:29:12.632Z,11.70
2018-08-17T09:31:40.744Z,13.10
2018-08-17T09:34:08.938Z,12.13
2018-08-17T09:36:37.105Z,11.13
2018-08-17T09:39:07.264Z,13.10
2018-08-17T09:41:35.499Z,13.07
2018-08-17T09:44:03.675Z,13.23
2018-08-17T09:46:31.848Z,14.80
2018-08-17T09:49:00.535Z,15.77
2018-08-17T09:51:28.784Z,15.63
2018-08-17T09:53:56.909Z,16.67
2018-08-17T09:56:25.089Z,17.30
2018-08-17T09:58:53.262Z,17.70
2018-08-17T10:01:26.909Z,19.87
2018-08-17T10:04:00.514Z,18.43
2018-08-17T10:06:34.031Z,19.80
2018-08-17T10:09:07.611Z,22.67
2018-08-17T10:11:35.784Z,23.10
2018-08-17T10:14:03.958Z,24.00
2018-08-17T10:16:32.134Z,23.67
2018-08-17T10:19:00.311Z,24.00
2018-08-17T10:21:29.683Z,25.57
2018-08-17T10:23:57.543Z,25.37
2018-08-17T10:26:25.707Z,24.23
2018-08-17T10:28:53.904Z,22.60
2018-08-17T10:31:22.067Z,24.43
2018-08-17T10:33:50.249Z,24.33
2018-08-17T10:36:18.410Z,25.47
2018-08-17T10:38:46.578Z,26.00
2018-08-17T10:41:14.782Z,29.27
2018-08-17T10:43:42.974Z,29.90
2018-08-17T10:46:11.145Z,30.47
2018-08-17T10:48:39.336Z,29.53
2018-08-17T10:51:07.481Z,28.63
2018-08-17T10:53:41.686Z,34.43
2018-08-17T10:56:09.866Z,32.93
2018-08-17T10:58:38.030Z,39.87
2018-08-17T11:01:06.250Z,43.40
2018-08-17T11:03:34.430Z,44.37
2018-08-17T11:06:02.621Z,42.60
2018-08-17T11:08:30.790Z,44.70
2018-08-17T11:10:59.001Z,42.60
2018-08-17T11:13:27.173Z,42.73
2018-08-17T11:15:55.309Z,46.07
2018-08-17T11:18:23.546Z,43.97
2018-08-17T11:20:53.572Z,42.67
2018-08-17T11:23:22.109Z,42.53
2018-08-17T11:25:50.305Z,43.93
2018-08-17T11:28:18.495Z,44.37
2018-08-17T11:30:46.661Z,45.03
2018-08-17T11:33:14.850Z,44.53
2018-08-17T11:35:43.019Z,43.23
2018-08-17T11:38:15.519Z,43.10
2018-08-17T11:40:43.710Z,36.33
2018-08-17T11:43:11.896Z,39.47
2018-08-17T11:45:45.258Z,37.80
2018-08-17T11:48:25.786Z,35.43
2018-08-17T11:50:54.263Z,31.63
2018-08-17T11:53:22.467Z,28.27
2018-08-17T11:55:50.680Z,20.27
2018-08-17T11:58:18.855Z,23.20
2018-08-17T12:00:47.054Z,22.23
2018-08-17T12:03:15.282Z,22.47
2018-08-17T12:05:43.475Z,22.30
2018-08-17T12:08:11.745Z,22.40
2018-08-17T12:10:39.864Z,20.50
2018-08-17T12:13:13.366Z,23.17
2018-08-17T12:15:48.726Z,19.60
2018-08-17T12:18:16.993Z,19.87
2018-08-17T12:20:45.179Z,19.53
2018-08-17T12:23:13.391Z,18.97
2018-08-17T12:25:47.079Z,19.50
2018-08-17T12:28:15.286Z,20.00
2018-08-17T12:30:43.464Z,18.83
2018-08-17T12:33:12.627Z,17.97
2018-08-17T12:35:41.002Z,18.30
2018-08-17T12:38:14.306Z,16.87
2018-08-17T12:40:47.895Z,17.20
2018-08-17T12:43:18.327Z,20.07
2018-08-17T12:45:46.702Z,21.43
2018-08-17T12:48:15.907Z,24.03
2018-08-17T12:50:44.590Z,26.43
2018-08-17T12:53:13.082Z,28.90
2018-08-17T12:55:41.320Z,28.10
2018-08-17T12:58:09.630Z,26.10
2018-08-17T13:00:37.998Z,25.20
2018-08-17T13:03:06.214Z,26.20
2018-08-17T13:05:34.370Z,25.07
2018-08-17T13:08:02.558Z,26.43
2018-08-17T13:10:30.718Z,23.90
2018-08-17T13:13:04.174Z,24.40
2018-08-17T13:15:32.351Z,25.40
2018-08-17T13:18:08.450Z,24.63
2018-08-17T13:20:36.641Z,24.93
2018-08-17T13:23:04.871Z,25.67
2018-08-17T13:25:33.023Z,24.90
2018-08-17T13:28:01.210Z,25.53
2018-08-17T13:30:29.390Z,24.80
2018-08-17T13:32:57.572Z,24.90
2018-08-17T13:35:25.815Z,23.90
2018-08-17T13:37:54.022Z,24.70
2018-08-17T13:40:22.191Z,24.63
2018-08-17T13:42:50.378Z,25.13
2018-08-17T13:45:18.560Z,25.30
2018-08-17T13:47:46.738Z,25.47
2018-08-17T13:50:14.926Z,23.77
2018-08-17T13:52:43.122Z,21.03
2018-08-17T13:55:11.295Z,18.53
2018-08-17T13:57:39.512Z,17.47
2018-08-17T14:00:09.455Z,18.20
2018-08-17T14:02:37.681Z,16.27
2018-08-17T14:05:06.694Z,17.03
2018-08-17T14:07:34.867Z,17.03
2018-08-17T14:10:03.176Z,15.10
2018-08-17T14:12:31.318Z,12.20
2018-08-17T14:14:59.615Z,13.23
2018-08-17T14:17:27.814Z,13.13
2018-08-17T14:19:56.032Z,12.20
2018-08-17T14:22:24.328Z,13.33
2018-08-17T14:24:52.421Z,16.23
2018-08-17T14:27:20.606Z,15.30
2018-08-17T14:29:48.787Z,15.27
2018-08-17T14:32:16.971Z,14.60
2018-08-17T14:34:45.154Z,14.17
2018-08-17T14:37:13.322Z,13.40
2018-08-17T14:39:41.517Z,12.80
2018-08-17T14:42:09.719Z,13.20
2018-08-17T14:44:37.891Z,12.53
2018-08-17T14:47:06.118Z,12.63
2018-08-17T14:49:34.363Z,13.33
2018-08-17T14:52:02.815Z,14.87
2018-08-17T14:54:30.979Z,13.40
2018-08-17T14:56:59.164Z,13.10
2018-08-17T14:59:27.334Z,14.00
2018-08-17T15:01:55.502Z,13.43
2018-08-17T15:04:23.670Z,15.03
2018-08-17T15:06:51.859Z,15.17
2018-08-17T15:09:20.033Z,15.47
2018-08-17T15:11:48.212Z,15.30
2018-08-17T15:14:16.406Z,15.80
2018-08-17T15:16:44.615Z,15.77
2018-08-17T15:19:12.819Z,15.07
2018-08-17T15:21:41.443Z,15.33
2018-08-17T15:24:10.231Z,15.87
2018-08-17T15:26:38.471Z,15.73
2018-08-17T15:29:06.628Z,15.73
2018-08-17T15:31:35.243Z,13.17
2018-08-17T15:34:03.456Z,12.43
2018-08-17T15:36:31.666Z,11.00
2018-08-17T15:38:59.864Z,11.47
2018-08-17T15:41:28.158Z,10.73
2018-08-17T15:43:56.282Z,10.43
2018-08-17T15:46:24.512Z,10.27
2018-08-17T15:48:54.230Z,10.23
2018-08-17T15:51:22.421Z,10.10
2018-08-17T15:53:50.889Z,11.63
2018-08-17T15:56:19.150Z,11.40
2018-08-17T15:58:47.410Z,11.77
2018-08-17T16:01:15.612Z,10.60
2018-08-17T16:03:43.803Z,11.40
2018-08-17T16:06:12.011Z,11.83
2018-08-17T16:08:40.310Z,11.27
2018-08-17T16:11:09.020Z,10.90
2018-08-17T16:13:37.175Z,11.37
2018-08-17T16:16:05.675Z,11.47
2018-08-17T16:18:34.154Z,11.80
2018-08-17T16:21:02.347Z,11.20
2018-08-17T16:23:30.538Z,12.07
2018-08-17T16:25:58.736Z,14.47
2018-08-17T16:28:26.912Z,13.53
2018-08-17T16:30:55.103Z,13.73
2018-08-17T16:33:23.277Z,14.50
2018-08-17T16:35:51.455Z,13.20
2018-08-17T16:38:19.634Z,13.50
2018-08-17T16:40:50.526Z,13.00
2018-08-17T16:43:23.474Z,13.33
2018-08-17T16:45:51.718Z,13.37
2018-08-17T16:48:20.250Z,13.87
2018-08-17T16:50:48.458Z,13.63
2018-08-17T16:53:16.646Z,12.80
2018-08-17T16:55:44.810Z,13.20
2018-08-17T16:58:12.977Z,12.33
2018-08-17T17:00:41.234Z,11.70
2018-08-17T17:03:09.342Z,12.37
2018-08-17T17:05:37.506Z,12.43
2018-08-17T17:08:05.772Z,12.13
2018-08-17T17:10:33.974Z,11.97
2018-08-17T17:13:02.162Z,12.23
2018-08-17T17:15:30.328Z,13.40
2018-08-17T17:18:03.850Z,12.03
2018-08-17T17:20:34.555Z,11.13
2018-08-17T17:23:03.430Z,12.20
2018-08-17T17:25:31.609Z,13.23
2018-08-17T17:27:59.774Z,11.70
2018-08-17T17:30:43.136Z,13.87
2018-08-17T17:33:11.639Z,12.27
2018-08-17T17:35:41.862Z,12.93
2018-08-17T17:38:10.452Z,13.07
2018-08-17T17:40:38.935Z,13.23
2018-08-17T17:43:07.415Z,13.03
2018-08-17T17:45:36.064Z,13.03
2018-08-17T17:48:04.286Z,14.03
2018-08-17T17:50:32.493Z,13.57
2018-08-17T17:53:01.846Z,13.23
2018-08-17T17:55:41.089Z,13.00
2018-08-17T17:58:09.692Z,12.50
2018-08-17T18:00:37.860Z,12.50
2018-08-17T18:03:06.270Z,12.60
2018-08-17T18:05:34.438Z,12.33
2018-08-17T18:08:07.715Z,11.40
2018-08-17T18:10:35.894Z,11.30
2018-08-17T18:13:04.090Z,12.10
2018-08-17T18:15:32.238Z,11.93
2018-08-17T18:18:00.427Z,12.40
2018-08-17T18:20:28.595Z,13.60
2018-08-17T18:22:56.779Z,12.23
2018-08-17T18:25:24.969Z,12.20
2018-08-17T18:27:53.164Z,11.43
2018-08-17T18:30:21.322Z,12.83
2018-08-17T18:32:49.500Z,12.00
2018-08-17T18:35:17.797Z,12.47
2018-08-17T18:37:45.870Z,11.90
2018-08-17T18:40:14.080Z,12.37
2018-08-17T18:42:42.246Z,12.13
2018-08-17T18:45:10.442Z,12.80
2018-08-17T18:47:38.619Z,11.80
2018-08-17T18:50:07.430Z,12.33
2018-08-17T18:52:35.641Z,12.43
2018-08-17T18:55:04.087Z,12.13
2018-08-17T18:57:32.173Z,11.40
2018-08-17T19:00:00.471Z,12.77
2018-08-17T19:02:28.652Z,11.80
2018-08-17T19:04:56.834Z,11.70
2018-08-17T19:07:25.022Z,12.80
2018-08-17T19:09:53.220Z,12.73
2018-08-17T19:12:21.387Z,11.80
2018-08-17T19:14:50.739Z,12.67
2018-08-17T19:17:34.558Z,12.97
2018-08-17T19:20:02.769Z,13.30
2018-08-17T19:22:38.126Z,12.63
2018-08-17T19:25:07.396Z,12.60
2018-08-17T19:27:36.728Z,13.37
2018-08-17T19:30:08.872Z,13.57
2018-08-17T19:32:37.043Z,13.20
2018-08-17T19:35:05.234Z,13.93
2018-08-17T19:37:33.906Z,14.13
2018-08-17T19:40:02.149Z,14.13
2018-08-17T19:42:30.350Z,13.43
2018-08-17T19:44:58.549Z,13.30
2018-08-17T19:47:26.731Z,13.93
2018-08-17T19:49:54.909Z,14.33
2018-08-17T19:52:23.074Z,13.63
2018-08-17T19:54:51.243Z,14.17
2018-08-17T19:57:19.428Z,14.10
2018-08-17T19:59:47.606Z,13.67
2018-08-17T20:02:15.789Z,13.70
2018-08-17T20:04:43.962Z,13.80
2018-08-17T20:07:12.158Z,13.83
2018-08-17T20:09:40.329Z,14.50
2018-08-17T20:12:08.542Z,15.23
2018-08-17T20:14:36.718Z,14.17
2018-08-17T20:17:04.906Z,14.47
2018-08-17T20:19:38.446Z,15.03
2018-08-17T20:22:18.901Z,14.57
2018-08-17T20:24:47.346Z,15.23
2018-08-17T20:27:15.922Z,14.00
2018-08-17T20:29:44.308Z,15.37
2018-08-17T20:32:12.503Z,15.20
2018-08-17T20:34:43.822Z,14.80
2018-08-17T20:37:13.138Z,14.30
2018-08-17T20:39:42.646Z,14.83
2018-08-17T20:42:11.418Z,14.80
2018-08-17T20:44:39.632Z,15.70
2018-08-17T20:47:08.338Z,15.90
2018-08-17T20:49:36.554Z,15.00
2018-08-17T20:52:05.047Z,15.60
2018-08-17T20:54:33.527Z,15.23
2018-08-17T20:57:02.048Z,15.10
2018-08-17T20:59:30.380Z,14.73
2018-08-17T21:01:59.175Z,15.70
2018-08-17T21:04:27.359Z,14.83
2018-08-17T21:06:55.534Z,15.87
2018-08-17T21:09:23.718Z,14.83
2018-08-17T21:11:51.902Z,15.67
2018-08-17T21:14:20.103Z,15.03
2018-08-17T21:16:48.288Z,15.63
2018-08-17T21:19:16.527Z,16.53
2018-08-17T21:21:44.751Z,15.10
2018-08-17T21:24:12.899Z,14.90
2018-08-17T21:26:41.095Z,16.10
2018-08-17T21:29:09.343Z,16.27
2018-08-17T21:31:37.459Z,16.33
2018-08-17T21:34:05.681Z,15.57
2018-08-17T21:36:33.871Z,14.20
2018-08-17T21:39:17.956Z,14.03
2018-08-17T21:41:47.405Z,16.37
2018-08-17T21:44:16.870Z,15.30
2018-08-17T21:46:51.357Z,16.07
2018-08-17T21:49:20.083Z,15.90
2018-08-17T21:51:48.258Z,15.90
2018-08-17T21:54:18.090Z,17.10
2018-08-17T21:56:46.341Z,16.13
2018-08-17T21:59:14.514Z,15.80
2018-08-17T22:01:42.736Z,16.50
2018-08-17T22:04:10.933Z,16.80
2018-08-17T22:06:39.119Z,16.80
2018-08-17T22:09:08.644Z,16.20
2018-08-17T22:11:37.134Z,15.50
2018-08-17T22:14:05.774Z,15.97
2018-08-17T22:16:33.974Z,15.87
2018-08-17T22:19:02.224Z,16.43
2018-08-17T22:21:30.440Z,14.47
2018-08-17T22:23:58.836Z,14.93
2018-08-17T22:26:26.971Z,14.30
2018-08-17T22:28:55.271Z,14.40
2018-08-17T22:31:35.865Z,15.23
2018-08-17T22:34:04.211Z,15.07
2018-08-17T22:36:32.395Z,15.07
2018-08-17T22:39:00.594Z,14.37
2018-08-17T22:41:28.834Z,16.30
2018-08-17T22:43:57.656Z,15.13
2018-08-17T22:46:25.847Z,15.87
2018-08-17T22:48:54.323Z,15.77
2018-08-17T22:51:22.444Z,14.63
2018-08-17T22:53:50.634Z,16.30
2018-08-17T22:56:18.835Z,16.20
2018-08-17T22:58:49.956Z,16.80
2018-08-17T23:01:19.806Z,15.30
2018-08-17T23:03:54.690Z,15.43
2018-08-17T23:06:24.392Z,15.03
2018-08-17T23:08:52.602Z,14.53
2018-08-17T23:11:28.818Z,15.37
2018-08-17T23:13:59.279Z,15.33
2018-08-17T23:16:27.467Z,16.10
2018-08-17T23:18:55.657Z,15.20
2018-08-17T23:21:23.858Z,14.90
2018-08-17T23:23:52.068Z,15.60
2018-08-17T23:26:20.243Z,15.60
2018-08-17T23:28:48.415Z,15.40
2018-08-17T23:31:16.614Z,15.40
2018-08-17T23:33:44.786Z,15.97
2018-08-17T23:36:12.967Z,15.33
2018-08-17T23:38:41.162Z,16.20
2018-08-17T23:41:09.353Z,15.63
2018-08-17T23:43:37.539Z,15.27
2018-08-17T23:46:05.839Z,17.30
2018-08-17T23:48:34.018Z,17.23
2018-08-17T23:51:02.202Z,16.20
2018-08-17T23:53:30.435Z,16.90
2018-08-17T23:55:58.614Z,16.30
2018-08-17T23:58:26.811Z,16.40
